MOL Partner — 3EBZ5 — position and weather

sailwx.info

Track history (hours):
 
Tides and Currents Weather Stations Pressure Air Temp Water Temp Dewpoint Dewpoint Depression Visibility Wind Speed Wind Dir Waves Ship Positions

MOL Partner

Last reported at 2016-Aug-29 10:08 UTC. Time now 2016-Aug-29 12:54 UTC.
Position N 23°50' E 118°23'.

Length 293 m; draft 9.7 m.

Type: Ship (hazmat cat D). MMSI: 371303000.

Date/timePositionNaut miles runAvg speedWind from/ knotsBaromVisibWave heightAir tempDewpointWater temp
2016-Aug-29 10:08N 23°50' E 118°23'40113.6
2016-Aug-28 04:33N 29°24' E 122°31'1615.7
2016-Aug-28 03:34N 29°39' E 122°28'1514.8
2016-Aug-28 02:33N 29°48' E 122°14'1111.3
2016-Aug-28 01:33N 29°54' E 122°03'1 0.6
2016-Aug-28 00:25N 29°54' E 122°02'0 0.0
2016-Aug-27 18:28N 29°54' E 122°02'0 0.0
2016-Aug-27 16:10N 29°54' E 122°02'0 0.0
2016-Aug-27 14:28N 29°54' E 122°02'0 0.0
2016-Aug-27 11:28N 29°54' E 122°02'0 0.1
2016-Aug-27 08:29N 29°54' E 122°02'4 4.0
2016-Aug-27 07:33N 29°55' E 122°06'8 8.0
2016-Aug-27 06:33N 29°50' E 122°13'16 7.8
2016-Aug-27 04:33N 29°42' E 122°29'  
2016-Aug-23 14:29N 34°53' E 139°38'1516.8
2016-Aug-23 13:33N 35°08' E 139°45'1212.2
2016-Aug-23 12:33N 35°20' E 139°42'4 4.4
2016-Aug-23 11:33N 35°24' E 139°41'0 0.0
2016-Aug-23 10:33N 35°24' E 139°41'0 0.0
2016-Aug-23 09:33N 35°24' E 139°41'0 0.0
2016-Aug-23 08:33N 35°24' E 139°41'0 0.0
2016-Aug-23 07:33N 35°24' E 139°41'0 0.0
2016-Aug-23 06:33N 35°24' E 139°41'1 0.9
2016-Aug-23 05:33N 35°23' E 139°41'8 8.2
2016-Aug-23 04:33N 35°16' E 139°46'10 9.9
2016-Aug-23 03:33N 35°06' E 139°45'1312.8
2016-Aug-23 02:33N 34°54' E 139°44'1211.8
2016-Aug-23 01:33N 34°51' E 139°58'1818.5
2016-Aug-23 00:34N 34°53' E 140°20'  
Track history (hours):
 
Tides and Currents Weather Stations Pressure Air Temp Water Temp Dewpoint Dewpoint Depression Visibility Wind Speed Wind Dir Waves Ship Positions

MOL Partner

Last reported at 2016-Aug-29 10:08 UTC. Time now 2016-Aug-29 12:54 UTC.
Position N 23°50' E 118°23'.

Length 293 m; draft 9.7 m.

Type: Ship (hazmat cat D). MMSI: 371303000.

Date/timePositionNaut miles runAvg speedWind from/ knotsBaromVisibWave heightAir tempDewpointWater temp
2016-Aug-29 10:08N 23°50' E 118°23'40113.6
2016-Aug-28 04:33N 29°24' E 122°31'1615.7
2016-Aug-28 03:34N 29°39' E 122°28'1514.8
2016-Aug-28 02:33N 29°48' E 122°14'1111.3
2016-Aug-28 01:33N 29°54' E 122°03'1 0.6
2016-Aug-28 00:25N 29°54' E 122°02'0 0.0
2016-Aug-27 18:28N 29°54' E 122°02'0 0.0
2016-Aug-27 16:10N 29°54' E 122°02'0 0.0
2016-Aug-27 14:28N 29°54' E 122°02'0 0.0
2016-Aug-27 11:28N 29°54' E 122°02'0 0.1
2016-Aug-27 08:29N 29°54' E 122°02'4 4.0
2016-Aug-27 07:33N 29°55' E 122°06'8 8.0
2016-Aug-27 06:33N 29°50' E 122°13'16 7.8
2016-Aug-27 04:33N 29°42' E 122°29'  
2016-Aug-23 14:29N 34°53' E 139°38'1516.8
2016-Aug-23 13:33N 35°08' E 139°45'1212.2
2016-Aug-23 12:33N 35°20' E 139°42'4 4.4
2016-Aug-23 11:33N 35°24' E 139°41'0 0.0
2016-Aug-23 10:33N 35°24' E 139°41'0 0.0
2016-Aug-23 09:33N 35°24' E 139°41'0 0.0
2016-Aug-23 08:33N 35°24' E 139°41'0 0.0
2016-Aug-23 07:33N 35°24' E 139°41'0 0.0
2016-Aug-23 06:33N 35°24' E 139°41'1 0.9
2016-Aug-23 05:33N 35°23' E 139°41'8 8.2
2016-Aug-23 04:33N 35°16' E 139°46'10 9.9
2016-Aug-23 03:33N 35°06' E 139°45'1312.8
2016-Aug-23 02:33N 34°54' E 139°44'1211.8
2016-Aug-23 01:33N 34°51' E 139°58'1818.5
2016-Aug-23 00:34N 34°53' E 140°20'  

Dump ship's entire track history